createdAt,value
2018-10-16T00:01:05.178Z,50.55
2018-10-16T00:03:34.238Z,50.32
2018-10-16T00:06:03.355Z,50.70
2018-10-16T00:08:32.465Z,50.59
2018-10-16T00:11:01.567Z,50.59
2018-10-16T00:13:30.605Z,50.70
2018-10-16T00:15:59.651Z,50.77
2018-10-16T00:18:28.755Z,50.66
2018-10-16T00:20:57.812Z,50.49
2018-10-16T00:23:26.851Z,50.88
2018-10-16T00:25:55.943Z,50.58
2018-10-16T00:28:26.043Z,50.68
2018-10-16T00:30:55.112Z,50.72
2018-10-16T00:33:24.152Z,50.76
2018-10-16T00:35:53.651Z,50.98
2018-10-16T00:38:22.777Z,51.00
2018-10-16T00:40:51.836Z,50.87
2018-10-16T00:43:20.945Z,50.56
2018-10-16T00:45:50.027Z,50.79
2018-10-16T00:48:19.291Z,50.74
2018-10-16T00:50:48.452Z,50.86
2018-10-16T00:53:17.724Z,51.00
2018-10-16T00:55:46.815Z,50.62
2018-10-16T00:58:15.919Z,51.03
2018-10-16T01:00:44.959Z,51.06
2018-10-16T01:03:14.015Z,50.77
2018-10-16T01:05:43.110Z,50.80
2018-10-16T01:08:12.156Z,50.72
2018-10-16T01:10:41.210Z,50.91
2018-10-16T01:13:10.258Z,50.85
2018-10-16T01:15:39.384Z,51.08
2018-10-16T01:18:08.432Z,50.81
2018-10-16T01:20:37.562Z,51.21
2018-10-16T01:23:06.686Z,51.05
2018-10-16T01:25:35.722Z,50.98
2018-10-16T01:28:04.873Z,51.05
2018-10-16T01:30:33.968Z,51.03
2018-10-16T01:33:03.019Z,51.01
2018-10-16T01:35:32.139Z,50.81
2018-10-16T01:38:01.457Z,51.21
2018-10-16T01:40:30.543Z,50.96
2018-10-16T01:42:59.605Z,51.00
2018-10-16T01:45:28.753Z,51.19
2018-10-16T01:47:57.777Z,51.03
2018-10-16T01:50:26.849Z,51.23
2018-10-16T01:52:55.976Z,50.91
2018-10-16T01:55:25.058Z,51.10
2018-10-16T01:57:54.103Z,50.85
2018-10-16T02:00:23.160Z,51.23
2018-10-16T02:02:52.208Z,51.03
2018-10-16T02:05:22.720Z,50.83
2018-10-16T02:07:51.767Z,50.99
2018-10-16T02:10:20.822Z,50.79
2018-10-16T02:12:49.873Z,50.97
2018-10-16T02:15:18.912Z,50.70
2018-10-16T02:17:47.967Z,50.96
2018-10-16T02:20:16.999Z,50.88
2018-10-16T02:22:46.098Z,50.93
2018-10-16T02:25:15.131Z,50.83
2018-10-16T02:27:44.176Z,50.87
2018-10-16T02:30:13.217Z,50.87
2018-10-16T02:32:42.319Z,50.97
2018-10-16T02:35:12.155Z,51.23
2018-10-16T02:37:41.252Z,50.87
2018-10-16T02:40:10.930Z,51.13
2018-10-16T02:42:40.567Z,50.97
2018-10-16T02:45:10.697Z,50.88
2018-10-16T02:47:40.163Z,51.33
2018-10-16T02:50:10.334Z,50.93
2018-10-16T02:52:39.687Z,50.94
2018-10-16T02:55:09.847Z,51.45
2018-10-16T02:57:38.895Z,51.33
2018-10-16T03:00:08.133Z,51.88
2018-10-16T03:02:37.291Z,52.26
2018-10-16T03:05:06.383Z,52.18
2018-10-16T03:07:35.483Z,52.80
2018-10-16T03:10:04.564Z,52.82
2018-10-16T03:12:33.607Z,52.82
2018-10-16T03:15:02.715Z,52.89
2018-10-16T03:17:31.767Z,52.90
2018-10-16T03:20:00.813Z,53.03
2018-10-16T03:22:29.932Z,52.81
2018-10-16T03:24:58.987Z,52.92
2018-10-16T03:27:28.119Z,53.20
2018-10-16T03:29:57.231Z,53.45
2018-10-16T03:32:26.291Z,53.28
2018-10-16T03:34:55.331Z,52.98
2018-10-16T03:37:24.411Z,53.05
2018-10-16T03:39:53.495Z,53.10
2018-10-16T03:42:22.539Z,53.13
2018-10-16T03:44:51.743Z,53.26
2018-10-16T03:47:20.820Z,53.04
2018-10-16T03:49:49.865Z,53.14
2018-10-16T03:52:18.896Z,53.03
2018-10-16T03:54:47.942Z,53.33
2018-10-16T03:57:17.091Z,53.42
2018-10-16T03:59:46.448Z,53.44
2018-10-16T04:02:15.777Z,53.23
2018-10-16T04:04:44.863Z,52.85
2018-10-16T04:07:13.903Z,53.26
2018-10-16T04:09:43.025Z,52.91
2018-10-16T04:12:12.084Z,53.03
2018-10-16T04:14:41.044Z,53.12
2018-10-16T04:17:10.002Z,52.63
2018-10-16T04:19:38.976Z,52.66
2018-10-16T04:22:08.024Z,52.82
2018-10-16T04:24:36.993Z,52.97
2018-10-16T04:27:06.139Z,52.65
2018-10-16T04:29:35.103Z,52.72
2018-10-16T04:32:04.070Z,52.93
2018-10-16T04:34:33.128Z,52.89
2018-10-16T04:37:02.411Z,52.74
2018-10-16T04:39:31.447Z,52.68
2018-10-16T04:42:00.483Z,52.53
2018-10-16T04:44:29.466Z,52.53
2018-10-16T04:46:58.566Z,52.78
2018-10-16T04:49:27.627Z,52.65
2018-10-16T04:52:02.078Z,52.77
2018-10-16T04:54:31.204Z,52.53
2018-10-16T04:57:00.254Z,52.54
2018-10-16T04:59:29.345Z,52.46
2018-10-16T05:01:58.388Z,52.25
2018-10-16T05:04:27.427Z,52.22
2018-10-16T05:06:56.382Z,52.26
2018-10-16T05:09:25.434Z,52.40
2018-10-16T05:11:55.563Z,52.32
2018-10-16T05:14:24.542Z,52.50
2018-10-16T05:16:53.689Z,52.81
2018-10-16T05:19:22.865Z,52.47
2018-10-16T05:21:51.974Z,52.80
2018-10-16T05:24:21.064Z,52.58
2018-10-16T05:26:50.315Z,52.49
2018-10-16T05:29:19.356Z,52.71
2018-10-16T05:31:48.422Z,52.66
2018-10-16T05:34:17.539Z,52.84
2018-10-16T05:36:46.643Z,52.62
2018-10-16T05:39:15.772Z,53.01
2018-10-16T05:41:45.041Z,53.01
2018-10-16T05:44:14.122Z,53.10
2018-10-16T05:46:43.192Z,53.04
2018-10-16T05:49:12.247Z,52.78
2018-10-16T05:51:41.311Z,53.03
2018-10-16T05:54:10.709Z,52.78
2018-10-16T05:56:40.020Z,53.07
2018-10-16T05:59:09.295Z,52.93
2018-10-16T06:01:38.330Z,52.69
2018-10-16T06:04:07.425Z,52.82
2018-10-16T06:06:36.528Z,53.14
2018-10-16T06:09:07.336Z,53.12
2018-10-16T06:11:36.480Z,53.04
2018-10-16T06:14:05.567Z,52.80
2018-10-16T06:16:34.736Z,52.75
2018-10-16T06:19:03.815Z,52.63
2018-10-16T06:21:32.823Z,52.83
2018-10-16T06:24:01.863Z,52.78
2018-10-16T06:26:31.014Z,52.35
2018-10-16T06:29:00.183Z,52.29
2018-10-16T06:31:29.328Z,52.50
2018-10-16T06:33:58.663Z,52.70
2018-10-16T06:36:27.835Z,52.33
2018-10-16T06:38:56.863Z,52.38
2018-10-16T06:41:26.027Z,52.51
2018-10-16T06:43:55.294Z,52.48
2018-10-16T06:46:24.569Z,52.50
2018-10-16T06:48:53.971Z,52.00
2018-10-16T06:51:24.091Z,52.36
2018-10-16T06:53:53.075Z,52.43
2018-10-16T06:56:22.152Z,52.53
2018-10-16T06:58:51.228Z,52.35
2018-10-16T07:01:20.304Z,52.49
2018-10-16T07:03:49.364Z,52.22
2018-10-16T07:06:18.516Z,52.51
2018-10-16T07:08:47.700Z,52.44
2018-10-16T07:11:16.780Z,52.48
2018-10-16T07:13:45.918Z,52.71
2018-10-16T07:16:15.227Z,52.55
2018-10-16T07:18:44.433Z,53.01
2018-10-16T07:21:13.588Z,53.34
2018-10-16T07:23:42.788Z,52.93
2018-10-16T07:26:12.087Z,53.23
2018-10-16T07:28:41.210Z,53.18
2018-10-16T07:31:10.215Z,53.17
2018-10-16T07:33:39.206Z,53.04
2018-10-16T07:36:08.278Z,53.09
2018-10-16T07:38:37.375Z,52.87
2018-10-16T07:41:06.426Z,53.07
2018-10-16T07:43:35.448Z,52.63
2018-10-16T07:46:04.639Z,52.98
2018-10-16T07:48:33.720Z,52.75
2018-10-16T07:51:03.004Z,52.85
2018-10-16T07:53:32.065Z,52.88
2018-10-16T07:56:01.099Z,52.73
2018-10-16T07:58:30.199Z,52.61
2018-10-16T08:00:59.517Z,52.43
2018-10-16T08:03:28.533Z,52.51
2018-10-16T08:05:57.651Z,52.52
2018-10-16T08:08:26.774Z,52.01
2018-10-16T08:10:55.932Z,51.93
2018-10-16T08:13:25.080Z,51.88
2018-10-16T08:15:54.144Z,52.14
2018-10-16T08:18:23.240Z,51.96
2018-10-16T08:20:52.327Z,51.86
2018-10-16T08:23:21.317Z,51.96
2018-10-16T08:25:50.371Z,52.03
2018-10-16T08:28:19.392Z,52.00
2018-10-16T08:30:48.590Z,51.92
2018-10-16T08:33:17.663Z,51.82
2018-10-16T08:35:46.786Z,52.08
2018-10-16T08:39:21.823Z,51.66
2018-10-16T08:44:10.047Z,51.71
2018-10-16T08:46:50.436Z,51.81
2018-10-16T08:49:30.889Z,51.59
2018-10-16T08:52:00.258Z,51.56
2018-10-16T08:54:29.318Z,51.65
2018-10-16T08:56:58.716Z,51.16
2018-10-16T08:59:28.000Z,51.25
2018-10-16T09:01:57.053Z,51.05
2018-10-16T09:04:26.105Z,50.08
2018-10-16T09:06:55.222Z,50.01
2018-10-16T09:09:24.451Z,49.91
2018-10-16T09:11:53.799Z,49.99
2018-10-16T09:14:22.826Z,49.44
2018-10-16T09:16:52.108Z,49.35
2018-10-16T09:19:21.095Z,48.94
2018-10-16T09:21:50.172Z,48.86
2018-10-16T09:24:19.255Z,48.41
2018-10-16T09:26:48.268Z,48.89
2018-10-16T09:29:17.390Z,48.84
2018-10-16T09:31:46.438Z,48.43
2018-10-16T09:34:15.485Z,48.45
2018-10-16T09:36:44.572Z,48.26
2018-10-16T09:39:13.630Z,48.26
2018-10-16T09:41:42.684Z,48.74
2018-10-16T09:44:11.770Z,48.54
2018-10-16T09:46:40.827Z,48.58
2018-10-16T09:49:09.892Z,48.53
2018-10-16T09:51:39.012Z,48.02
2018-10-16T09:54:08.133Z,47.99
2018-10-16T09:56:37.209Z,48.47
2018-10-16T09:59:06.314Z,48.13
2018-10-16T10:01:40.877Z,48.04
2018-10-16T10:04:09.958Z,47.37
2018-10-16T10:06:38.984Z,47.62
2018-10-16T10:09:11.258Z,47.55
2018-10-16T10:11:40.556Z,47.67
2018-10-16T10:14:10.033Z,47.91
2018-10-16T10:16:39.478Z,47.38
2018-10-16T10:19:08.612Z,47.38
2018-10-16T10:21:37.903Z,47.33
2018-10-16T10:24:06.996Z,47.15
2018-10-16T10:26:36.302Z,47.58
2018-10-16T10:29:05.600Z,47.46
2018-10-16T10:31:34.733Z,47.38
2018-10-16T10:34:03.897Z,47.43
2018-10-16T10:36:32.975Z,47.08
2018-10-16T10:39:02.114Z,47.10
2018-10-16T10:41:31.176Z,47.79
2018-10-16T10:44:00.275Z,47.01
2018-10-16T10:46:29.473Z,46.73
2018-10-16T10:48:58.572Z,46.84
2018-10-16T10:51:27.944Z,46.67
2018-10-16T10:53:57.132Z,46.54
2018-10-16T10:56:26.210Z,46.27
2018-10-16T10:58:55.355Z,46.34
2018-10-16T11:01:24.518Z,46.15
2018-10-16T11:03:53.524Z,46.21
2018-10-16T11:06:22.597Z,46.02
2018-10-16T11:08:51.702Z,45.61
2018-10-16T11:11:21.821Z,45.54
2018-10-16T11:13:50.953Z,45.21
2018-10-16T11:16:20.051Z,45.40
2018-10-16T11:18:49.159Z,45.46
2018-10-16T11:21:18.324Z,45.62
2018-10-16T11:23:47.375Z,45.25
2018-10-16T11:26:16.445Z,45.23
2018-10-16T11:28:45.524Z,45.28
2018-10-16T11:31:14.571Z,45.57
2018-10-16T11:33:43.657Z,45.50
2018-10-16T11:36:12.611Z,45.64
2018-10-16T11:38:41.716Z,45.46
2018-10-16T11:41:10.819Z,45.17
2018-10-16T11:43:39.903Z,45.37
2018-10-16T11:46:08.971Z,45.06
2018-10-16T11:48:38.083Z,45.17
2018-10-16T11:51:07.163Z,45.02
2018-10-16T11:53:36.241Z,45.25
2018-10-16T11:56:05.495Z,45.09
2018-10-16T11:58:34.803Z,45.08
2018-10-16T12:01:03.932Z,44.65
2018-10-16T12:03:32.984Z,44.82
2018-10-16T12:06:02.123Z,44.81
2018-10-16T12:08:31.399Z,44.78
2018-10-16T12:11:00.465Z,44.90
2018-10-16T12:13:29.964Z,44.65
2018-10-16T12:15:59.207Z,44.30
2018-10-16T12:18:32.129Z,44.28
2018-10-16T12:21:05.162Z,44.35
2018-10-16T12:23:34.438Z,44.24
2018-10-16T12:26:03.674Z,43.95
2018-10-16T12:28:32.860Z,44.13
2018-10-16T12:31:01.970Z,44.39
2018-10-16T12:33:31.189Z,43.80
2018-10-16T12:36:00.355Z,43.53
2018-10-16T12:38:29.646Z,43.58
2018-10-16T12:40:58.869Z,43.32
2018-10-16T12:43:28.314Z,43.42
2018-10-16T12:45:58.110Z,43.26
2018-10-16T12:48:28.040Z,43.87
2018-10-16T12:50:57.405Z,43.19
2018-10-16T12:53:26.732Z,43.69
2018-10-16T12:55:55.771Z,43.74
2018-10-16T12:58:25.057Z,43.70
2018-10-16T13:00:54.135Z,43.33
2018-10-16T13:03:23.246Z,43.14
2018-10-16T13:05:52.458Z,43.34
2018-10-16T13:08:21.556Z,42.93
2018-10-16T13:10:50.673Z,43.08
2018-10-16T13:13:19.717Z,43.27
2018-10-16T13:15:48.851Z,42.81
2018-10-16T13:18:17.935Z,43.18
2018-10-16T13:20:47.012Z,43.19
2018-10-16T13:23:16.165Z,43.15
2018-10-16T13:25:45.416Z,43.06
2018-10-16T13:28:14.479Z,42.91
2018-10-16T13:30:43.639Z,42.55
2018-10-16T13:33:12.688Z,42.78
2018-10-16T13:35:41.832Z,42.51
2018-10-16T13:38:10.960Z,42.86
2018-10-16T13:40:40.222Z,42.81
2018-10-16T13:43:09.306Z,42.65
2018-10-16T13:45:38.417Z,42.66
2018-10-16T13:48:07.508Z,42.53
2018-10-16T13:50:36.616Z,42.25
2018-10-16T13:53:05.863Z,42.03
2018-10-16T13:55:34.927Z,42.41
2018-10-16T13:58:04.393Z,42.47
2018-10-16T14:00:33.595Z,42.38
2018-10-16T14:03:02.656Z,42.52
2018-10-16T14:05:31.809Z,42.29
2018-10-16T14:08:00.893Z,41.97
2018-10-16T14:10:30.119Z,42.07
2018-10-16T14:12:59.191Z,42.53
2018-10-16T14:15:28.237Z,42.15
2018-10-16T14:17:57.322Z,42.07
2018-10-16T14:20:26.558Z,42.44
2018-10-16T14:22:55.709Z,42.29
2018-10-16T14:25:24.991Z,42.54
2018-10-16T14:27:54.100Z,42.15
2018-10-16T14:30:23.363Z,42.57
2018-10-16T14:32:52.457Z,42.07
2018-10-16T14:35:21.548Z,42.47
2018-10-16T14:37:50.655Z,42.65
2018-10-16T14:40:19.973Z,42.29
2018-10-16T14:42:49.417Z,42.27
2018-10-16T14:45:18.510Z,42.27
2018-10-16T14:47:47.595Z,42.21
2018-10-16T14:50:16.867Z,41.95
2018-10-16T14:52:45.996Z,42.42
2018-10-16T14:55:15.269Z,42.30
2018-10-16T14:57:44.464Z,42.21
2018-10-16T15:00:14.003Z,42.46
2018-10-16T15:02:43.145Z,42.49
2018-10-16T15:05:12.707Z,42.44
2018-10-16T15:07:42.163Z,42.43
2018-10-16T15:10:11.358Z,42.49
2018-10-16T15:12:40.667Z,43.08
2018-10-16T15:15:10.057Z,42.89
2018-10-16T15:17:39.156Z,43.26
2018-10-16T15:20:09.771Z,43.28
2018-10-16T15:22:38.947Z,43.06
2018-10-16T15:25:09.175Z,42.90
2018-10-16T15:27:38.326Z,42.57
2018-10-16T15:30:08.632Z,42.27
2018-10-16T15:32:37.762Z,42.60
2018-10-16T15:35:07.977Z,42.24
2018-10-16T15:37:37.211Z,42.10
2018-10-16T15:40:07.564Z,42.10
2018-10-16T15:42:37.012Z,42.21
2018-10-16T15:45:07.716Z,41.96
2018-10-16T15:47:36.781Z,42.19
2018-10-16T15:50:06.934Z,42.02
2018-10-16T15:52:36.119Z,42.08
2018-10-16T15:55:05.855Z,42.16
2018-10-16T15:57:34.950Z,42.08
2018-10-16T16:00:04.386Z,42.15
2018-10-16T16:02:33.723Z,42.25
2018-10-16T16:05:02.928Z,42.53
2018-10-16T16:07:32.029Z,42.38
2018-10-16T16:10:01.207Z,42.49
2018-10-16T16:12:30.628Z,42.25
2018-10-16T16:14:59.927Z,42.29
2018-10-16T16:17:28.995Z,42.54
2018-10-16T16:19:58.054Z,42.59
2018-10-16T16:22:27.121Z,42.20
2018-10-16T16:24:56.352Z,41.93
2018-10-16T16:27:25.447Z,42.09
2018-10-16T16:29:54.566Z,42.49
2018-10-16T16:32:23.788Z,42.44
2018-10-16T16:34:53.132Z,42.26
2018-10-16T16:37:22.351Z,42.25
2018-10-16T16:39:51.439Z,42.14
2018-10-16T16:42:20.727Z,42.03
2018-10-16T16:44:49.831Z,42.46
2018-10-16T16:47:18.919Z,42.45
2018-10-16T16:49:47.986Z,42.60
2018-10-16T16:52:17.106Z,42.46
2018-10-16T16:54:46.255Z,42.51
2018-10-16T16:57:15.391Z,42.79
2018-10-16T16:59:44.431Z,42.65
2018-10-16T17:02:13.533Z,42.80
2018-10-16T17:04:42.884Z,42.91
2018-10-16T17:07:11.992Z,42.86
2018-10-16T17:09:41.277Z,42.90
2018-10-16T17:12:10.337Z,42.74
2018-10-16T17:14:39.455Z,42.91
2018-10-16T17:17:08.519Z,42.94
2018-10-16T17:19:37.574Z,43.13
2018-10-16T17:22:06.733Z,43.16
2018-10-16T17:24:35.956Z,42.93
2018-10-16T17:27:05.223Z,43.17
2018-10-16T17:29:34.279Z,42.94
2018-10-16T17:32:03.347Z,43.01
2018-10-16T17:34:37.899Z,42.99
2018-10-16T17:37:12.388Z,42.92
2018-10-16T17:39:41.449Z,43.30
2018-10-16T17:42:10.746Z,43.21
2018-10-16T17:44:39.837Z,43.09
2018-10-16T17:47:08.940Z,43.38
2018-10-16T17:49:38.083Z,43.32
2018-10-16T17:52:07.174Z,43.43
2018-10-16T17:54:36.296Z,43.63
2018-10-16T17:57:06.283Z,43.29
2018-10-16T17:59:35.571Z,43.51
2018-10-16T18:02:04.787Z,43.06
2018-10-16T18:04:33.937Z,43.04
2018-10-16T18:07:03.195Z,43.39
2018-10-16T18:09:32.263Z,43.33
2018-10-16T18:12:01.356Z,43.31
2018-10-16T18:14:30.479Z,43.19
2018-10-16T18:16:59.567Z,42.81
2018-10-16T18:19:28.692Z,43.24
2018-10-16T18:21:57.797Z,43.34
2018-10-16T18:24:26.882Z,43.26
2018-10-16T18:26:55.940Z,43.18
2018-10-16T18:29:24.995Z,43.12
2018-10-16T18:31:54.067Z,42.96
2018-10-16T18:34:23.119Z,43.25
2018-10-16T18:36:52.295Z,43.20
2018-10-16T18:39:21.450Z,43.16
2018-10-16T18:41:50.740Z,43.29
2018-10-16T18:44:19.862Z,43.09
2018-10-16T18:46:49.127Z,43.48
2018-10-16T18:49:18.187Z,43.11
2018-10-16T18:51:47.242Z,43.37
2018-10-16T18:54:16.617Z,43.33
2018-10-16T18:56:45.929Z,43.84
2018-10-16T18:59:15.021Z,43.94
2018-10-16T19:01:44.127Z,43.72
2018-10-16T19:04:13.319Z,43.97
2018-10-16T19:06:42.536Z,43.96
2018-10-16T19:09:12.845Z,43.48
2018-10-16T19:11:42.823Z,43.96
2018-10-16T19:14:11.957Z,43.82
2018-10-16T19:16:41.227Z,43.50
2018-10-16T19:20:40.120Z,43.55
2018-10-16T19:23:09.309Z,43.50
2018-10-16T19:25:38.546Z,43.44
2018-10-16T19:28:07.971Z,43.67
2018-10-16T19:30:37.073Z,43.40
2018-10-16T19:33:06.176Z,43.27
2018-10-16T19:35:35.405Z,43.53
2018-10-16T19:38:04.551Z,43.25
2018-10-16T19:40:33.614Z,43.33
2018-10-16T19:43:03.178Z,43.35
2018-10-16T19:45:32.310Z,43.40
2018-10-16T19:48:01.627Z,43.55
2018-10-16T19:50:30.745Z,43.49
2018-10-16T19:52:59.826Z,42.98
2018-10-16T19:55:28.939Z,43.19
2018-10-16T19:57:58.039Z,43.47
2018-10-16T20:00:27.107Z,43.07
2018-10-16T20:02:56.184Z,42.88
2018-10-16T20:05:25.631Z,43.07
2018-10-16T20:07:54.831Z,43.03
2018-10-16T20:10:23.889Z,42.81
2018-10-16T20:12:53.114Z,42.88
2018-10-16T20:15:22.201Z,42.82
2018-10-16T20:17:51.490Z,42.56
2018-10-16T20:20:20.622Z,42.94
2018-10-16T20:22:49.908Z,42.63
2018-10-16T20:25:19.042Z,42.76
2018-10-16T20:27:48.260Z,42.64
2018-10-16T20:30:17.310Z,42.84
2018-10-16T20:32:47.445Z,42.72
2018-10-16T20:35:16.464Z,42.88
2018-10-16T20:37:45.608Z,42.92
2018-10-16T20:40:14.736Z,42.54
2018-10-16T20:42:43.867Z,42.62
2018-10-16T20:45:12.930Z,42.30
2018-10-16T20:47:42.043Z,42.64
2018-10-16T20:50:11.315Z,42.52
2018-10-16T20:52:40.400Z,42.45
2018-10-16T20:55:14.995Z,42.58
2018-10-16T20:57:49.559Z,42.39
2018-10-16T21:00:18.659Z,42.27
2018-10-16T21:02:47.707Z,42.46
2018-10-16T21:05:16.962Z,42.76
2018-10-16T21:07:46.134Z,42.81
2018-10-16T21:10:15.171Z,42.96
2018-10-16T21:12:44.307Z,42.93
2018-10-16T21:15:13.383Z,43.22
2018-10-16T21:17:42.433Z,43.19
2018-10-16T21:20:11.493Z,43.45
2018-10-16T21:22:40.662Z,43.84
2018-10-16T21:25:10.262Z,43.59
2018-10-16T21:27:41.240Z,43.61
2018-10-16T21:30:10.338Z,44.01
2018-10-16T21:32:39.422Z,44.01
2018-10-16T21:35:08.572Z,43.87
2018-10-16T21:37:37.884Z,43.90
2018-10-16T21:40:07.496Z,44.25
2018-10-16T21:42:36.530Z,43.97
2018-10-16T21:45:06.332Z,44.19
2018-10-16T21:47:35.444Z,44.12
2018-10-16T21:50:04.672Z,44.18
2018-10-16T21:52:33.723Z,44.20
2018-10-16T21:55:02.803Z,44.42
2018-10-16T21:57:32.045Z,44.85
2018-10-16T22:00:01.279Z,44.56
2018-10-16T22:02:35.723Z,44.91
2018-10-16T22:05:04.881Z,44.99
2018-10-16T22:07:34.135Z,45.08
2018-10-16T22:10:03.222Z,44.76
2018-10-16T22:12:32.346Z,44.98
2018-10-16T22:15:01.486Z,45.20
2018-10-16T22:17:30.775Z,45.35
2018-10-16T22:19:59.826Z,45.18
2018-10-16T22:22:28.964Z,45.30
2018-10-16T22:24:58.066Z,45.20
2018-10-16T22:27:27.311Z,45.13
2018-10-16T22:29:56.452Z,45.44
2018-10-16T22:32:25.522Z,45.61
2018-10-16T22:34:54.591Z,45.43
2018-10-16T22:37:23.968Z,45.18
2018-10-16T22:39:53.115Z,45.41
2018-10-16T22:42:22.155Z,45.70
2018-10-16T22:44:51.254Z,45.51
2018-10-16T22:47:20.341Z,45.63
2018-10-16T22:49:49.414Z,45.61
2018-10-16T22:52:18.503Z,45.39
2018-10-16T22:54:47.578Z,45.92
2018-10-16T22:57:16.626Z,45.71
2018-10-16T22:59:45.770Z,45.69
2018-10-16T23:02:14.999Z,45.70
2018-10-16T23:04:44.118Z,45.41
2018-10-16T23:07:13.267Z,45.65
2018-10-16T23:09:42.463Z,45.75
2018-10-16T23:12:11.515Z,45.49
2018-10-16T23:14:40.567Z,45.71
2018-10-16T23:17:10.089Z,45.92
2018-10-16T23:19:39.390Z,45.74
2018-10-16T23:22:08.444Z,45.99
2018-10-16T23:24:37.523Z,45.95
2018-10-16T23:27:06.587Z,45.99
2018-10-16T23:29:35.729Z,45.58
2018-10-16T23:32:04.819Z,45.70
2018-10-16T23:34:33.875Z,46.12
2018-10-16T23:37:03.193Z,46.12
2018-10-16T23:39:32.380Z,46.22
2018-10-16T23:42:01.524Z,46.29
2018-10-16T23:44:30.645Z,46.27
2018-10-16T23:46:59.733Z,46.25
2018-10-16T23:49:28.949Z,46.23
2018-10-16T23:51:58.003Z,46.45
2018-10-16T23:54:27.157Z,46.25
2018-10-16T23:56:56.325Z,46.52
2018-10-16T23:59:25.389Z,46.29
